createdAt,value
2016-07-16T00:00:14.352Z,13.68
2016-07-16T00:00:44.360Z,13.62
2016-07-16T00:01:14.381Z,13.7
2016-07-16T00:01:43.687Z,13.67
2016-07-16T00:02:14.417Z,13.72
2016-07-16T00:02:44.424Z,13.67
2016-07-16T00:03:14.437Z,13.68
2016-07-16T00:03:44.453Z,13.7
2016-07-16T00:04:14.464Z,13.7
2016-07-16T00:04:44.483Z,13.74
2016-07-16T00:05:14.493Z,13.67
2016-07-16T00:05:44.509Z,13.78
2016-07-16T00:06:13.810Z,13.74
2016-07-16T00:06:44.533Z,13.72
2016-07-16T00:07:14.548Z,13.72
2016-07-16T00:07:44.568Z,13.71
2016-07-16T00:08:13.863Z,13.71
2016-07-16T00:08:43.883Z,13.67
2016-07-16T00:09:14.605Z,13.7
2016-07-16T00:09:44.621Z,13.83
2016-07-16T00:10:14.633Z,13.9
2016-07-16T00:10:44.666Z,13.79
2016-07-16T00:11:14.673Z,13.79
2016-07-16T00:11:43.965Z,13.83
2016-07-16T00:12:14.695Z,13.85
2016-07-16T00:12:44.702Z,13.92
2016-07-16T00:13:14.711Z,13.83
2016-07-16T00:13:44.729Z,13.93
2016-07-16T00:14:14.751Z,13.93
2016-07-16T00:14:44.755Z,13.96
2016-07-16T00:15:14.778Z,13.96
2016-07-16T00:15:44.786Z,14.03
2016-07-16T00:16:14.803Z,13.99
2016-07-16T00:16:44.817Z,14.05
2016-07-16T00:17:14.825Z,14.07
2016-07-16T00:17:44.839Z,14.14
2016-07-16T00:18:14.152Z,14.15
2016-07-16T00:18:44.870Z,14.15
2016-07-16T00:19:14.887Z,14.18
2016-07-16T00:19:43.770Z,14.2
2016-07-16T00:20:14.909Z,14.23
2016-07-16T00:20:44.932Z,14.29
2016-07-16T00:21:44.953Z,14.23
2016-07-16T00:22:14.974Z,14.26
2016-07-16T00:22:44.988Z,14.25
2016-07-16T00:23:15.000Z,14.26
2016-07-16T00:23:45.012Z,14.33
2016-07-16T00:24:14.315Z,14.28
2016-07-16T00:24:45.044Z,14.32
2016-07-16T00:25:15.049Z,14.4
2016-07-16T00:25:45.068Z,14.4
2016-07-16T00:26:13.665Z,14.48
2016-07-16T00:26:45.103Z,14.41
2016-07-16T00:27:15.110Z,14.45
2016-07-16T00:27:44.420Z,14.41
2016-07-16T00:28:15.138Z,14.45
2016-07-16T00:28:45.148Z,14.45
2016-07-16T00:29:15.180Z,14.44
2016-07-16T00:29:44.471Z,14.45
2016-07-16T00:30:15.200Z,14.5
2016-07-16T00:30:45.203Z,14.54
2016-07-16T00:31:15.220Z,14.54
2016-07-16T00:31:44.529Z,14.53
2016-07-16T00:32:15.259Z,14.51
2016-07-16T00:32:45.263Z,14.54
2016-07-16T00:33:15.282Z,14.54
2016-07-16T00:33:44.584Z,14.51
2016-07-16T00:34:14.592Z,14.59
2016-07-16T00:34:45.320Z,14.5
2016-07-16T00:35:15.333Z,14.51
2016-07-16T00:35:45.349Z,14.44
2016-07-16T00:36:15.368Z,14.45
2016-07-16T00:36:45.383Z,14.37
2016-07-16T00:37:15.385Z,14.51
2016-07-16T00:37:45.411Z,14.48
2016-07-16T00:38:15.418Z,14.54
2016-07-16T00:38:45.443Z,14.43
2016-07-16T00:39:15.448Z,14.58
2016-07-16T00:39:45.461Z,14.55
2016-07-16T00:40:15.475Z,14.58
2016-07-16T00:40:45.490Z,14.6
2016-07-16T00:41:15.505Z,14.63
2016-07-16T00:41:45.523Z,14.54
2016-07-16T00:42:15.533Z,14.66
2016-07-16T00:42:45.550Z,14.58
2016-07-16T00:43:15.564Z,14.68
2016-07-16T00:43:45.582Z,14.59
2016-07-16T00:44:15.591Z,14.69
2016-07-16T00:44:45.609Z,14.73
2016-07-16T00:45:15.617Z,14.77
2016-07-16T00:45:45.632Z,14.72
2016-07-16T00:46:15.647Z,14.73
2016-07-16T00:46:44.950Z,14.66
2016-07-16T00:47:15.685Z,14.68
2016-07-16T00:47:45.690Z,14.81
2016-07-16T00:48:15.704Z,14.78
2016-07-16T00:48:45.010Z,14.81
2016-07-16T00:49:15.729Z,14.79
2016-07-16T00:49:45.749Z,14.85
2016-07-16T00:50:15.771Z,14.85
2016-07-16T00:50:45.775Z,14.85
2016-07-16T00:51:15.797Z,14.85
2016-07-16T00:51:45.801Z,14.81
2016-07-16T00:52:15.107Z,14.86
2016-07-16T00:52:45.838Z,14.84
2016-07-16T00:53:15.850Z,14.89
2016-07-16T00:53:45.864Z,14.79
2016-07-16T00:54:15.874Z,14.85
2016-07-16T00:54:45.176Z,14.92
2016-07-16T00:55:15.911Z,14.96
2016-07-16T00:55:45.923Z,14.96
2016-07-16T00:56:15.929Z,14.94
2016-07-16T00:56:45.945Z,15.02
2016-07-16T00:57:15.972Z,14.97
2016-07-16T00:57:45.266Z,14.99
2016-07-16T00:58:15.277Z,14.99
2016-07-16T00:58:46.019Z,14.96
2016-07-16T00:59:15.311Z,14.97
2016-07-16T00:59:46.025Z,15.02
2016-07-16T01:00:16.046Z,15.04
2016-07-16T01:00:45.350Z,15.02
2016-07-16T01:01:16.071Z,14.99
2016-07-16T01:01:46.092Z,14.96
2016-07-16T01:02:16.104Z,14.97
2016-07-16T01:02:46.114Z,14.97
2016-07-16T01:03:16.132Z,15.03
2016-07-16T01:03:46.153Z,15
2016-07-16T01:04:16.157Z,15.02
2016-07-16T01:04:46.177Z,15
2016-07-16T01:05:16.192Z,15.04
2016-07-16T01:05:46.202Z,15.07
2016-07-16T01:06:15.511Z,15.04
2016-07-16T01:06:46.228Z,15.03
2016-07-16T01:07:16.250Z,15.03
2016-07-16T01:07:45.551Z,15.03
2016-07-16T01:08:16.273Z,15.07
2016-07-16T01:08:46.289Z,15
2016-07-16T01:09:16.304Z,15.04
2016-07-16T01:09:46.315Z,15.07
2016-07-16T01:10:16.332Z,15.09
2016-07-16T01:10:45.634Z,15
2016-07-16T01:11:16.355Z,15.06
2016-07-16T01:11:46.387Z,15.11
2016-07-16T01:12:16.389Z,15.07
2016-07-16T01:12:46.406Z,15.03
2016-07-16T01:13:16.413Z,15.15
2016-07-16T01:13:46.435Z,15.09
2016-07-16T01:14:16.443Z,15.11
2016-07-16T01:14:46.453Z,15.1
2016-07-16T01:15:16.479Z,15.07
2016-07-16T01:15:46.492Z,15.11
2016-07-16T01:16:15.791Z,15.11
2016-07-16T01:16:46.513Z,15.1
2016-07-16T01:17:16.528Z,15.09
2016-07-16T01:17:46.542Z,15.15
2016-07-16T01:18:16.552Z,15.17
2016-07-16T01:18:46.575Z,15.14
2016-07-16T01:19:16.587Z,15.11
2016-07-16T01:19:45.884Z,15.15
2016-07-16T01:20:16.613Z,15.1
2016-07-16T01:20:45.916Z,15.1
2016-07-16T01:21:16.658Z,15.09
2016-07-16T01:21:46.654Z,15.17
2016-07-16T01:22:16.670Z,15.11
2016-07-16T01:22:46.693Z,15.19
2016-07-16T01:23:16.702Z,15.18
2016-07-16T01:23:46.711Z,15.18
2016-07-16T01:24:16.729Z,15.27
2016-07-16T01:24:46.738Z,15.18
2016-07-16T01:25:16.764Z,15.18
2016-07-16T01:25:46.770Z,15.22
2016-07-16T01:26:16.787Z,15.18
2016-07-16T01:26:46.799Z,15.1
2016-07-16T01:27:16.822Z,15.15
2016-07-16T01:27:46.828Z,15.21
2016-07-16T01:28:16.841Z,15.1
2016-07-16T01:28:46.857Z,15.18
2016-07-16T01:29:16.884Z,15.19
2016-07-16T01:29:46.883Z,15.06
2016-07-16T01:30:16.898Z,15.18
2016-07-16T01:30:46.912Z,15.15
2016-07-16T01:31:16.925Z,15.18
2016-07-16T01:31:46.242Z,15.14
2016-07-16T01:32:16.953Z,15.19
2016-07-16T01:32:46.977Z,15.22
2016-07-16T01:33:16.980Z,15.19
2016-07-16T01:33:46.996Z,15.11
2016-07-16T01:34:17.014Z,15.18
2016-07-16T01:34:46.315Z,15.17
2016-07-16T01:35:17.040Z,15.24
2016-07-16T01:35:46.344Z,15.14
2016-07-16T01:36:17.069Z,15.18
2016-07-16T01:36:47.086Z,15.19
2016-07-16T01:37:17.098Z,15.19
2016-07-16T01:37:47.122Z,15.14
2016-07-16T01:38:17.130Z,15.18
2016-07-16T01:38:47.145Z,15.15
2016-07-16T01:39:17.157Z,15.14
2016-07-16T01:39:46.462Z,15.17
2016-07-16T01:40:17.186Z,15.04
2016-07-16T01:40:47.196Z,15.15
2016-07-16T01:41:17.216Z,15.17
2016-07-16T01:41:47.223Z,15.14
2016-07-16T01:42:17.248Z,15.17
2016-07-16T01:42:47.249Z,15.15
2016-07-16T01:43:17.276Z,15.21
2016-07-16T01:43:47.281Z,15.17
2016-07-16T01:44:17.300Z,15.25
2016-07-16T01:44:47.312Z,15.18
2016-07-16T01:45:17.324Z,15.22
2016-07-16T01:45:47.337Z,15.28
2016-07-16T01:46:17.353Z,15.24
2016-07-16T01:46:47.368Z,15.19
2016-07-16T01:47:17.383Z,15.24
2016-07-16T01:47:47.405Z,15.21
2016-07-16T01:48:17.414Z,15.21
2016-07-16T01:48:47.424Z,15.19
2016-07-16T01:49:17.438Z,15.11
2016-07-16T01:49:46.743Z,15.18
2016-07-16T01:50:17.470Z,15.21
2016-07-16T01:50:47.477Z,15.17
2016-07-16T01:51:17.494Z,15.22
2016-07-16T01:51:47.516Z,15.21
2016-07-16T01:52:17.523Z,15.21
2016-07-16T01:52:47.545Z,15.17
2016-07-16T01:53:17.550Z,15.15
2016-07-16T01:53:47.569Z,15.21
2016-07-16T01:54:17.581Z,15.21
2016-07-16T01:54:47.593Z,15.19
2016-07-16T01:55:17.607Z,15.14
2016-07-16T01:55:47.629Z,15.14
2016-07-16T01:56:17.637Z,15.1
2016-07-16T01:56:47.654Z,15.18
2016-07-16T01:57:17.667Z,15.15
2016-07-16T01:57:46.975Z,15.21
2016-07-16T01:58:17.695Z,15.18
2016-07-16T01:58:47.715Z,15.24
2016-07-16T01:59:17.728Z,15.18
2016-07-16T01:59:47.732Z,15.18
2016-07-16T02:00:17.751Z,15.21
2016-07-16T02:00:47.766Z,15.22
2016-07-16T02:01:17.776Z,15.18
2016-07-16T02:01:47.795Z,15.18
2016-07-16T02:02:17.098Z,15.18
2016-07-16T02:02:47.825Z,15.18
2016-07-16T02:03:17.839Z,15.18
2016-07-16T02:03:47.852Z,15.22
2016-07-16T02:04:17.871Z,15.22
2016-07-16T02:04:47.884Z,15.21
2016-07-16T02:05:17.900Z,15.25
2016-07-16T02:05:47.199Z,15.22
2016-07-16T02:06:17.926Z,15.21
2016-07-16T02:06:47.225Z,15.33
2016-07-16T02:07:17.245Z,15.19
2016-07-16T02:07:47.970Z,15.31
2016-07-16T02:08:17.976Z,15.24
2016-07-16T02:08:47.287Z,15.24
2016-07-16T02:09:18.006Z,15.17
2016-07-16T02:09:48.025Z,15.22
2016-07-16T02:10:18.033Z,15.22
2016-07-16T02:10:48.062Z,15.27
2016-07-16T02:11:18.067Z,15.27
2016-07-16T02:11:48.076Z,15.24
2016-07-16T02:12:17.385Z,15.22
2016-07-16T02:12:48.108Z,15.22
2016-07-16T02:13:18.122Z,15.22
2016-07-16T02:13:48.135Z,15.22
2016-07-16T02:14:18.166Z,15.27
2016-07-16T02:14:48.175Z,15.25
2016-07-16T02:15:18.181Z,15.21
2016-07-16T02:15:48.209Z,15.25
2016-07-16T02:16:18.205Z,15.24
2016-07-16T02:16:47.536Z,15.25
2016-07-16T02:17:18.237Z,15.22
2016-07-16T02:17:47.538Z,15.22
2016-07-16T02:18:18.270Z,15.25
2016-07-16T02:18:48.276Z,15.22
2016-07-16T02:19:18.290Z,15.25
2016-07-16T02:19:48.309Z,15.28
2016-07-16T02:20:18.323Z,15.33
2016-07-16T02:20:47.625Z,15.33
2016-07-16T02:21:18.356Z,15.36
2016-07-16T02:21:48.360Z,15.36
2016-07-16T02:22:18.385Z,15.36
2016-07-16T02:22:48.389Z,15.27
2016-07-16T02:23:17.703Z,15.35
2016-07-16T02:23:48.423Z,15.39
2016-07-16T02:24:18.437Z,15.37
2016-07-16T02:24:48.466Z,15.31
2016-07-16T02:25:18.468Z,15.36
2016-07-16T02:25:48.479Z,15.36
2016-07-16T02:26:18.498Z,15.33
2016-07-16T02:26:48.510Z,15.29
2016-07-16T02:27:18.522Z,15.36
2016-07-16T02:27:48.537Z,15.29
2016-07-16T02:28:18.558Z,15.37
2016-07-16T02:28:47.849Z,15.33
2016-07-16T02:29:18.583Z,15.29
2016-07-16T02:29:48.596Z,15.44
2016-07-16T02:30:18.605Z,15.36
2016-07-16T02:30:48.617Z,15.42
2016-07-16T02:31:18.642Z,15.37
2016-07-16T02:31:48.646Z,15.44
2016-07-16T02:32:18.661Z,15.37
2016-07-16T02:32:48.681Z,15.31
2016-07-16T02:33:18.690Z,15.36
2016-07-16T02:33:48.708Z,15.42
2016-07-16T02:34:18.723Z,15.39
2016-07-16T02:34:48.741Z,15.42
2016-07-16T02:35:18.757Z,15.43
2016-07-16T02:35:48.778Z,15.4
2016-07-16T02:36:17.362Z,15.49
2016-07-16T02:36:48.798Z,15.43
2016-07-16T02:37:18.809Z,15.33
2016-07-16T02:37:48.821Z,15.43
2016-07-16T02:38:18.122Z,15.43
2016-07-16T02:38:48.856Z,15.39
2016-07-16T02:39:18.877Z,15.44
2016-07-16T02:39:48.876Z,15.4
2016-07-16T02:40:18.898Z,15.52
2016-07-16T02:40:48.905Z,15.44
2016-07-16T02:41:18.209Z,15.35
2016-07-16T02:41:48.226Z,15.37
2016-07-16T02:42:18.241Z,15.42
2016-07-16T02:42:48.963Z,15.39
2016-07-16T02:43:18.982Z,15.42
2016-07-16T02:43:48.291Z,15.4
2016-07-16T02:44:19.017Z,15.42
2016-07-16T02:44:49.024Z,15.4
2016-07-16T02:45:19.038Z,15.35
2016-07-16T02:45:49.057Z,15.51
2016-07-16T02:46:19.066Z,15.52
2016-07-16T02:46:49.078Z,15.49
2016-07-16T02:47:19.091Z,15.4
2016-07-16T02:47:49.104Z,15.46
2016-07-16T02:48:19.118Z,15.44
2016-07-16T02:48:49.140Z,15.43
2016-07-16T02:49:19.154Z,15.4
2016-07-16T02:49:49.166Z,15.44
2016-07-16T02:50:19.192Z,15.44
2016-07-16T02:50:49.193Z,15.47
2016-07-16T02:51:18.496Z,15.42
2016-07-16T02:51:49.229Z,15.43
2016-07-16T02:52:19.247Z,15.54
2016-07-16T02:52:49.258Z,15.51
2016-07-16T02:53:19.263Z,15.55
2016-07-16T02:53:49.278Z,15.52
2016-07-16T02:54:19.299Z,15.46
2016-07-16T02:54:49.307Z,15.59
2016-07-16T02:55:19.326Z,15.59
2016-07-16T02:55:49.340Z,15.47
2016-07-16T02:56:19.352Z,15.52
2016-07-16T02:56:49.370Z,15.52
2016-07-16T02:57:19.383Z,15.55
2016-07-16T02:57:49.399Z,15.55
2016-07-16T02:58:19.410Z,15.51
2016-07-16T02:58:49.428Z,15.51
2016-07-16T02:59:19.438Z,15.55
2016-07-16T02:59:49.455Z,15.51
2016-07-16T03:00:18.769Z,15.52
2016-07-16T03:00:49.482Z,15.59
2016-07-16T03:01:19.501Z,15.54
2016-07-16T03:01:49.511Z,15.51
2016-07-16T03:02:19.529Z,15.52
2016-07-16T03:02:48.828Z,15.51
2016-07-16T03:03:19.549Z,15.52
2016-07-16T03:03:49.568Z,15.51
2016-07-16T03:04:19.594Z,15.62
2016-07-16T03:04:49.592Z,15.59
2016-07-16T03:05:19.615Z,15.65
2016-07-16T03:05:49.625Z,15.61
2016-07-16T03:06:19.642Z,15.61
2016-07-16T03:06:49.647Z,15.64
2016-07-16T03:07:19.669Z,15.64
2016-07-16T03:07:48.971Z,15.65
2016-07-16T03:08:19.699Z,15.59
2016-07-16T03:08:49.002Z,15.61
2016-07-16T03:09:19.738Z,15.58
2016-07-16T03:09:49.738Z,15.75
2016-07-16T03:10:19.751Z,15.62
2016-07-16T03:10:49.765Z,15.57
2016-07-16T03:11:19.788Z,15.68
2016-07-16T03:11:49.796Z,15.68
2016-07-16T03:12:19.109Z,15.72
2016-07-16T03:12:49.824Z,15.64
2016-07-16T03:13:19.129Z,15.67
2016-07-16T03:13:49.849Z,15.73
2016-07-16T03:14:19.867Z,15.77
2016-07-16T03:14:49.888Z,15.7
2016-07-16T03:15:19.893Z,15.72
2016-07-16T03:15:49.910Z,15.72
2016-07-16T03:16:19.923Z,15.72
2016-07-16T03:16:49.939Z,15.7
2016-07-16T03:17:19.247Z,15.7
2016-07-16T03:17:49.260Z,15.73
2016-07-16T03:18:19.979Z,15.8
2016-07-16T03:18:49.995Z,15.77
2016-07-16T03:19:19.302Z,15.8
2016-07-16T03:19:50.028Z,15.8
2016-07-16T03:20:20.039Z,15.82
2016-07-16T03:20:50.060Z,15.8
2016-07-16T03:21:20.068Z,15.83
2016-07-16T03:21:50.077Z,15.9
2016-07-16T03:22:20.100Z,15.83
2016-07-16T03:22:50.121Z,15.91
2016-07-16T03:23:20.123Z,15.86
2016-07-16T03:23:50.140Z,15.88
2016-07-16T03:24:20.160Z,15.88
2016-07-16T03:24:50.166Z,15.9
2016-07-16T03:25:20.183Z,15.9
2016-07-16T03:25:50.200Z,15.9
2016-07-16T03:26:19.499Z,15.92
2016-07-16T03:26:50.227Z,15.82
2016-07-16T03:27:20.257Z,15.95
2016-07-16T03:27:50.250Z,15.98
2016-07-16T03:28:20.274Z,15.92
2016-07-16T03:28:50.286Z,15.98
2016-07-16T03:29:20.300Z,16
2016-07-16T03:29:50.315Z,16
2016-07-16T03:30:20.330Z,16.04
2016-07-16T03:30:50.343Z,16
2016-07-16T03:31:20.359Z,16.04
2016-07-16T03:31:50.372Z,16.02
2016-07-16T03:32:20.390Z,16.01
2016-07-16T03:32:50.400Z,16
2016-07-16T03:33:19.703Z,16.05
2016-07-16T03:33:50.438Z,16.05
2016-07-16T03:34:20.439Z,16.08
2016-07-16T03:34:50.461Z,15.97
2016-07-16T03:35:20.471Z,16.02
2016-07-16T03:35:50.483Z,16.05
2016-07-16T03:36:20.502Z,15.97
2016-07-16T03:36:49.806Z,16.04
2016-07-16T03:37:20.531Z,16.04
2016-07-16T03:37:50.542Z,16
2016-07-16T03:38:20.559Z,15.94
2016-07-16T03:38:50.580Z,16.01
2016-07-16T03:39:20.586Z,15.91
2016-07-16T03:39:50.604Z,15.97
2016-07-16T03:40:20.617Z,15.97
2016-07-16T03:40:50.632Z,15.92
2016-07-16T03:41:19.936Z,15.95
2016-07-16T03:41:50.659Z,15.98
2016-07-16T03:42:20.678Z,15.91
2016-07-16T03:42:50.691Z,15.9
2016-07-16T03:43:20.718Z,15.97
2016-07-16T03:43:50.722Z,16.01
2016-07-16T03:44:20.729Z,15.88
2016-07-16T03:44:50.748Z,15.91
2016-07-16T03:45:20.760Z,15.97
2016-07-16T03:45:50.776Z,15.91
2016-07-16T03:46:20.788Z,15.98
2016-07-16T03:46:50.799Z,15.9
2016-07-16T03:47:20.820Z,15.92
2016-07-16T03:47:50.828Z,15.97
2016-07-16T03:48:20.136Z,15.94
2016-07-16T03:48:50.861Z,15.97
2016-07-16T03:49:20.167Z,15.88
2016-07-16T03:49:50.173Z,15.98
2016-07-16T03:50:20.899Z,15.98
2016-07-16T03:50:50.918Z,15.98
2016-07-16T03:51:20.931Z,16
2016-07-16T03:51:50.946Z,15.91
2016-07-16T03:52:20.255Z,15.98
2016-07-16T03:52:50.972Z,15.97
2016-07-16T03:53:21.006Z,15.92
2016-07-16T03:53:51.001Z,15.92
2016-07-16T03:54:21.020Z,15.98
2016-07-16T03:54:51.031Z,15.92
2016-07-16T03:55:21.052Z,15.95
2016-07-16T03:55:51.077Z,15.95
2016-07-16T03:56:21.070Z,15.95
2016-07-16T03:56:51.095Z,15.97
2016-07-16T03:57:21.104Z,15.97
2016-07-16T03:57:51.122Z,16
2016-07-16T03:58:21.137Z,16.01
2016-07-16T03:58:51.153Z,16.01
2016-07-16T03:59:21.158Z,16.02
2016-07-16T03:59:51.183Z,16.1
2016-07-16T04:00:21.190Z,16.01
2016-07-16T04:00:51.205Z,16.01
2016-07-16T04:01:21.221Z,16.08
2016-07-16T04:01:50.527Z,16.12
2016-07-16T04:02:21.245Z,16
2016-07-16T04:02:51.269Z,16.15
2016-07-16T04:03:21.281Z,16.15
2016-07-16T04:03:51.308Z,16.15
2016-07-16T04:04:21.303Z,16.17
2016-07-16T04:04:51.321Z,16.13
2016-07-16T04:05:20.634Z,16.17
2016-07-16T04:05:50.645Z,16.17
2016-07-16T04:06:20.654Z,16.23
2016-07-16T04:06:51.385Z,16.23
2016-07-16T04:07:21.392Z,16.28
2016-07-16T04:07:51.407Z,16.23
2016-07-16T04:08:21.434Z,16.31
2016-07-16T04:08:51.440Z,16.29
2016-07-16T04:09:21.452Z,16.32
2016-07-16T04:09:51.463Z,16.26
2016-07-16T04:10:20.767Z,16.32
2016-07-16T04:10:51.496Z,16.35
2016-07-16T04:11:21.508Z,16.33
2016-07-16T04:11:50.812Z,16.31
2016-07-16T04:12:21.544Z,16.36
2016-07-16T04:12:51.549Z,16.29
2016-07-16T04:13:21.562Z,16.21
2016-07-16T04:13:50.872Z,16.38
2016-07-16T04:14:21.594Z,16.35
2016-07-16T04:14:51.605Z,16.35
2016-07-16T04:15:21.621Z,16.41
2016-07-16T04:15:51.638Z,16.26
2016-07-16T04:16:21.652Z,16.43
2016-07-16T04:16:51.675Z,16.32
2016-07-16T04:17:21.689Z,16.46
2016-07-16T04:17:51.693Z,16.38
2016-07-16T04:18:21.711Z,16.38
2016-07-16T04:18:51.742Z,16.33
2016-07-16T04:19:21.743Z,16.36
2016-07-16T04:19:51.753Z,16.39
2016-07-16T04:20:21.767Z,16.28
2016-07-16T04:20:51.782Z,16.47
2016-07-16T04:21:21.801Z,16.33
2016-07-16T04:21:51.816Z,16.38
2016-07-16T04:22:21.828Z,16.42
2016-07-16T04:22:51.841Z,16.36
2016-07-16T04:23:21.852Z,16.39
2016-07-16T04:23:51.874Z,16.38
2016-07-16T04:24:21.882Z,16.32
2016-07-16T04:24:51.905Z,16.28
2016-07-16T04:25:21.911Z,16.33
2016-07-16T04:25:51.220Z,16.33
2016-07-16T04:26:21.234Z,16.38
2016-07-16T04:26:51.954Z,16.39
2016-07-16T04:27:21.971Z,16.38
2016-07-16T04:27:51.992Z,16.46
2016-07-16T04:28:21.994Z,16.46
2016-07-16T04:28:52.012Z,16.46
2016-07-16T04:29:22.029Z,16.43
2016-07-16T04:29:52.041Z,16.42
2016-07-16T04:30:22.060Z,16.56
2016-07-16T04:30:52.072Z,16.5
2016-07-16T04:31:21.378Z,16.54
2016-07-16T04:31:52.106Z,16.47
2016-07-16T04:32:22.115Z,16.49
2016-07-16T04:32:52.132Z,16.53
2016-07-16T04:33:22.152Z,16.5
2016-07-16T04:33:52.164Z,16.53
2016-07-16T04:34:22.168Z,16.54
2016-07-16T04:34:51.485Z,16.6
2016-07-16T04:35:22.207Z,16.53
2016-07-16T04:35:51.513Z,16.56
2016-07-16T04:36:22.238Z,16.58
2016-07-16T04:36:51.539Z,16.53
2016-07-16T04:37:22.264Z,16.54
2016-07-16T04:37:52.272Z,16.64
2016-07-16T04:38:22.293Z,16.54
2016-07-16T04:38:52.300Z,16.61
2016-07-16T04:39:22.316Z,16.61
2016-07-16T04:39:52.338Z,16.58
2016-07-16T04:40:21.643Z,16.64
2016-07-16T04:40:52.357Z,16.58
2016-07-16T04:41:21.666Z,16.6
2016-07-16T04:41:52.389Z,16.66
2016-07-16T04:42:22.412Z,16.68
2016-07-16T04:42:52.421Z,16.64
2016-07-16T04:43:22.438Z,16.6
2016-07-16T04:43:51.747Z,16.61
2016-07-16T04:44:22.465Z,16.57
2016-07-16T04:44:52.476Z,16.66
2016-07-16T04:45:22.496Z,16.6
2016-07-16T04:45:52.507Z,16.58
2016-07-16T04:46:22.524Z,16.6
2016-07-16T04:46:52.534Z,16.65
2016-07-16T04:47:22.560Z,16.6
2016-07-16T04:47:52.568Z,16.68
2016-07-16T04:48:21.873Z,16.68
2016-07-16T04:48:51.889Z,16.68
2016-07-16T04:49:22.626Z,16.61
2016-07-16T04:49:52.624Z,16.72
2016-07-16T04:50:22.647Z,16.64
2016-07-16T04:50:52.662Z,16.66
2016-07-16T04:51:22.674Z,16.71
2016-07-16T04:51:52.688Z,16.61
2016-07-16T04:52:22.703Z,16.65
2016-07-16T04:52:52.712Z,16.61
2016-07-16T04:53:22.023Z,16.58
2016-07-16T04:53:52.031Z,16.57
2016-07-16T04:54:22.754Z,16.53
2016-07-16T04:54:52.776Z,16.65
2016-07-16T04:55:22.786Z,16.6
2016-07-16T04:55:52.803Z,16.68
2016-07-16T04:56:22.824Z,16.6
2016-07-16T04:56:52.834Z,16.61
2016-07-16T04:57:22.844Z,16.69
2016-07-16T04:57:52.857Z,16.71
2016-07-16T04:58:22.874Z,16.69
2016-07-16T04:58:52.888Z,16.72
2016-07-16T04:59:22.189Z,16.75
2016-07-16T04:59:52.918Z,16.75
2016-07-16T05:00:22.933Z,16.81
2016-07-16T05:00:52.946Z,16.84
2016-07-16T05:01:22.253Z,16.83
2016-07-16T05:01:52.267Z,16.87
2016-07-16T05:02:22.993Z,16.83
2016-07-16T05:02:53.007Z,16.86
2016-07-16T05:03:23.018Z,16.89
2016-07-16T05:03:53.037Z,16.83
2016-07-16T05:04:23.042Z,16.83
2016-07-16T05:04:53.059Z,16.86
2016-07-16T05:05:23.076Z,16.84
2016-07-16T05:05:53.096Z,16.91
2016-07-16T05:06:23.106Z,16.99
2016-07-16T05:06:53.126Z,16.99
2016-07-16T05:07:23.140Z,16.97
2016-07-16T05:07:53.155Z,16.99
2016-07-16T05:08:22.458Z,17.11
2016-07-16T05:08:53.181Z,17.08
2016-07-16T05:09:22.483Z,17.11
2016-07-16T05:09:53.213Z,17.19
2016-07-16T05:10:23.228Z,17.12
2016-07-16T05:10:53.238Z,17.22
2016-07-16T05:11:23.252Z,17.23
2016-07-16T05:11:53.269Z,17.3
2016-07-16T05:12:23.287Z,17.26
2016-07-16T05:12:52.586Z,17.27
2016-07-16T05:13:22.604Z,17.3
2016-07-16T05:13:52.627Z,17.3
2016-07-16T05:14:23.346Z,17.38
2016-07-16T05:14:53.354Z,17.42
2016-07-16T05:15:22.659Z,17.48
2016-07-16T05:15:53.386Z,17.59
2016-07-16T05:16:23.406Z,17.63
2016-07-16T05:16:53.412Z,17.6
2016-07-16T05:17:23.429Z,17.65
2016-07-16T05:17:53.439Z,17.68
2016-07-16T05:18:23.457Z,17.72
2016-07-16T05:18:53.472Z,17.79
2016-07-16T05:19:23.489Z,17.87
2016-07-16T05:19:53.502Z,17.76
2016-07-16T05:20:23.520Z,17.82
2016-07-16T05:20:53.529Z,17.89
2016-07-16T05:21:23.544Z,17.87
2016-07-16T05:21:53.559Z,17.85
2016-07-16T05:22:23.587Z,17.94
2016-07-16T05:22:53.592Z,17.92
2016-07-16T05:23:23.607Z,17.95
2016-07-16T05:23:53.617Z,18.01
2016-07-16T05:24:23.640Z,18.03
2016-07-16T05:24:53.651Z,18.01
2016-07-16T05:25:22.957Z,18
2016-07-16T05:25:53.678Z,18.03
2016-07-16T05:26:23.704Z,18.08
2016-07-16T05:26:53.710Z,18.11
2016-07-16T05:27:23.721Z,18.15
2016-07-16T05:27:53.740Z,18.2
2016-07-16T05:28:23.766Z,18.18
2016-07-16T05:28:53.766Z,18.22
2016-07-16T05:29:23.791Z,18.11
2016-07-16T05:29:53.799Z,18.22
2016-07-16T05:30:23.812Z,18.18
2016-07-16T05:30:53.828Z,18.25
2016-07-16T05:31:23.863Z,18.26
2016-07-16T05:31:53.855Z,18.28
2016-07-16T05:32:23.167Z,18.33
2016-07-16T05:32:53.175Z,18.33
2016-07-16T05:33:23.903Z,18.31
2016-07-16T05:33:53.205Z,18.4
2016-07-16T05:34:23.937Z,18.34
2016-07-16T05:34:53.945Z,18.22
2016-07-16T05:35:23.963Z,18.23
2016-07-16T05:35:53.978Z,18.34
2016-07-16T05:36:23.997Z,18.28
2016-07-16T05:36:54.006Z,18.33
2016-07-16T05:37:23.310Z,18.26
2016-07-16T05:37:54.036Z,18.29
2016-07-16T05:38:24.057Z,18.33
2016-07-16T05:38:54.067Z,18.26
2016-07-16T05:39:24.083Z,18.31
2016-07-16T05:39:54.093Z,18.31
2016-07-16T05:40:24.114Z,18.28
2016-07-16T05:40:54.128Z,18.28
2016-07-16T05:41:24.138Z,18.25
2016-07-16T05:41:54.152Z,18.16
2016-07-16T05:42:24.174Z,18.16
2016-07-16T05:42:54.187Z,18.1
2016-07-16T05:43:24.206Z,18.15
2016-07-16T05:43:54.215Z,18.08
2016-07-16T05:44:24.237Z,18.13
2016-07-16T05:44:54.246Z,18.08
2016-07-16T05:45:24.257Z,18.15
2016-07-16T05:45:54.272Z,18.13
2016-07-16T05:46:24.286Z,18.18
2016-07-16T05:46:54.313Z,18.16
2016-07-16T05:47:24.323Z,18.19
2016-07-16T05:47:54.337Z,18.16
2016-07-16T05:48:24.350Z,18.2
2016-07-16T05:48:53.665Z,18.2
2016-07-16T05:49:24.377Z,18.18
2016-07-16T05:49:54.397Z,18.25
2016-07-16T05:50:24.408Z,18.29
2016-07-16T05:50:54.422Z,18.29
2016-07-16T05:51:24.431Z,18.31
2016-07-16T05:51:54.459Z,18.28
2016-07-16T05:52:23.761Z,18.28
2016-07-16T05:52:54.482Z,18.16
2016-07-16T05:53:23.789Z,18.22
2016-07-16T05:53:54.518Z,18.18
2016-07-16T05:54:24.527Z,18.23
2016-07-16T05:54:54.550Z,18.19
2016-07-16T05:55:24.556Z,18.1
2016-07-16T05:55:53.861Z,18.13
2016-07-16T05:56:24.597Z,18.16
2016-07-16T05:56:54.602Z,18.16
2016-07-16T05:57:24.621Z,18.2
2016-07-16T05:57:53.922Z,18.22
2016-07-16T05:58:24.646Z,18.08
2016-07-16T05:58:54.658Z,18.13
2016-07-16T05:59:24.676Z,18.22
2016-07-16T05:59:54.693Z,18.15
2016-07-16T06:00:24.001Z,18.19
2016-07-16T06:00:53.299Z,18.26
2016-07-16T06:01:24.023Z,18.29
2016-07-16T06:01:54.748Z,18.26
2016-07-16T06:02:24.762Z,18.33
2016-07-16T06:02:54.068Z,18.26
2016-07-16T06:03:24.801Z,18.33
2016-07-16T06:03:54.807Z,18.31
2016-07-16T06:04:24.830Z,18.33
2016-07-16T06:04:54.843Z,18.22
2016-07-16T06:05:24.850Z,18.25
2016-07-16T06:05:54.871Z,18.22
2016-07-16T06:06:24.889Z,18.13
2016-07-16T06:06:54.902Z,18.15
2016-07-16T06:07:24.908Z,18.11
2016-07-16T06:07:54.941Z,18.2
2016-07-16T06:08:24.948Z,18.31
2016-07-16T06:08:54.957Z,18.29
2016-07-16T06:09:24.974Z,18.33
2016-07-16T06:09:54.989Z,18.28
2016-07-16T06:10:24.294Z,18.34
2016-07-16T06:10:55.018Z,18.35
2016-07-16T06:11:25.030Z,18.37
2016-07-16T06:11:55.049Z,18.34
2016-07-16T06:12:25.062Z,18.41
2016-07-16T06:12:55.079Z,18.38
2016-07-16T06:13:25.107Z,18.52
2016-07-16T06:13:55.109Z,18.44
2016-07-16T06:14:25.126Z,18.45
2016-07-16T06:14:55.134Z,18.5
2016-07-16T06:15:25.148Z,18.63
2016-07-16T06:15:55.184Z,18.68
2016-07-16T06:16:25.180Z,18.73
2016-07-16T06:16:55.199Z,18.77
2016-07-16T06:17:25.214Z,18.74
2016-07-16T06:17:55.228Z,18.78
2016-07-16T06:18:25.252Z,18.75
2016-07-16T06:18:55.269Z,18.93
2016-07-16T06:19:25.270Z,18.89
2016-07-16T06:19:55.287Z,18.89
2016-07-16T06:20:25.302Z,18.95
2016-07-16T06:20:55.325Z,19.08
2016-07-16T06:21:25.328Z,19.08
2016-07-16T06:21:55.347Z,19.15
2016-07-16T06:22:25.362Z,19.09
2016-07-16T06:22:55.392Z,19.15
2016-07-16T06:23:25.392Z,19.16
2016-07-16T06:23:55.409Z,19.22
2016-07-16T06:24:24.714Z,19.33
2016-07-16T06:24:55.448Z,19.3
2016-07-16T06:25:25.448Z,19.34
2016-07-16T06:25:55.468Z,19.44
2016-07-16T06:26:25.489Z,19.37
2016-07-16T06:26:55.499Z,19.49
2016-07-16T06:27:25.512Z,19.54
2016-07-16T06:27:55.534Z,19.56
2016-07-16T06:28:25.544Z,19.55